Orange Hope — JD2027 — position and weather

sailwx.info

Track history (hours):
 
Tides and Currents Weather Stations Pressure Air Temp Water Temp Dewpoint Dewpoint Depression Visibility Wind Speed Wind Dir Waves Ship Positions

Orange Hope

Last reported at 2017-Nov-17 17:48 UTC. Time now 2017-Nov-21 11:37 UTC.
Position N 34°34' E 134°50'.

Length 180 m; draft 6.5 m.

Type: Passenger vessel. MMSI: 431501801.

Date/timePositionNaut miles runAvg speedWind from/ knotsBaromVisibWave heightAir tempDewpointWater temp
2017-Nov-17 17:48N 34°34' E 134°50'517.7
2017-Nov-17 17:30N 34°37' E 134°55'816.8
2017-Nov-17 17:00N 34°36' E 135°06'1019.7
2017-Nov-17 16:30N 34°38' E 135°17'4 7.3
2017-Nov-17 16:00N 34°42' E 135°17'0 0.0
2017-Nov-17 15:30N 34°42' E 135°17'0 0.0
2017-Nov-17 15:00N 34°42' E 135°17'0 0.6
2017-Nov-17 14:30N 34°42' E 135°18'612.9
2017-Nov-17 14:00N 34°36' E 135°15'1019.5
2017-Nov-17 13:30N 34°36' E 135°03'1018.8
2017-Nov-17 13:00N 34°34' E 134°52'9 0.5
2017-Nov-16 18:07N 34°32' E 134°42'420.9
2017-Nov-16 17:56N 34°33' E 134°46'920.3
2017-Nov-16 17:30N 34°37' E 134°56'917.3
2017-Nov-16 17:00N 34°35' E 135°06'1019.9
2017-Nov-16 16:30N 34°38' E 135°18'4 7.0
2017-Nov-16 16:00N 34°42' E 135°17'0 0.0
2017-Nov-16 15:30N 34°42' E 135°17'0 0.0
2017-Nov-16 15:00N 34°42' E 135°17'0 0.0
2017-Nov-16 14:30N 34°42' E 135°17'3 5.7
2017-Nov-16 14:00N 34°39' E 135°19'918.0
2017-Nov-16 13:30N 34°35' E 135°09'1020.7
2017-Nov-16 13:00N 34°36' E 134°57'5 0.3
2017-Nov-15 17:47N 34°35' E 134°51'618.8
2017-Nov-15 17:30N 34°37' E 134°57'817.2
2017-Nov-15 17:01N 34°35' E 135°07'919.0
2017-Nov-15 16:31N 34°39' E 135°18'3 5.8
2017-Nov-15 16:00N 34°42' E 135°17'0 0.0
2017-Nov-15 15:30N 34°42' E 135°17'0 0.0
2017-Nov-15 15:00N 34°42' E 135°17'0 0.1
2017-Nov-15 14:30N 34°42' E 135°17'4 7.5
2017-Nov-15 14:00N 34°38' E 135°18'917.3
2017-Nov-15 13:30N 34°35' E 135°09'1019.3
2017-Nov-15 13:01N 34°36' E 134°57'11 0.6
2017-Nov-14 18:11N 34°33' E 134°45'320.1
2017-Nov-14 18:00N 34°34' E 134°48'1019.5
2017-Nov-14 17:30N 34°38' E 134°60'918.4
2017-Nov-14 17:00N 34°36' E 135°11'816.1
2017-Nov-14 16:30N 34°41' E 135°18'1 2.4
2017-Nov-14 16:00N 34°42' E 135°17'0 0.0
2017-Nov-14 15:30N 34°42' E 135°17'0 0.0
2017-Nov-14 14:58N 34°42' E 135°17'0 0.1
2017-Nov-14 14:30N 34°42' E 135°17'5 9.3
2017-Nov-14 14:00N 34°37' E 135°18'918.4
2017-Nov-14 13:30N 34°34' E 135°08'918.7
2017-Nov-14 13:00N 34°36' E 134°57'  
2017-Nov-10 18:07N 34°31' E 134°41'620.3
2017-Nov-10 17:50N 34°34' E 134°47'720.7
2017-Nov-10 17:30N 34°36' E 134°55'919.0
2017-Nov-10 17:00N 34°36' E 135°06'918.7
2017-Nov-10 16:30N 34°38' E 135°18'4 7.4
2017-Nov-10 16:00N 34°42' E 135°17'0 0.0
2017-Nov-10 15:30N 34°42' E 135°17'0 0.0
2017-Nov-10 15:00N 34°42' E 135°17'0 0.7
2017-Nov-10 14:30N 34°42' E 135°18'612.3
2017-Nov-10 14:00N 34°36' E 135°15'918.2
2017-Nov-10 13:30N 34°35' E 135°04'816.0
2017-Nov-10 13:00N 34°35' E 134°55'8 0.4
2017-Nov-09 17:55N 34°33' E 134°45'921.8
2017-Nov-09 17:30N 34°37' E 134°55'917.7
2017-Nov-09 17:00N 34°35' E 135°05'1019.7
2017-Nov-09 16:30N 34°38' E 135°17'4 7.5
2017-Nov-09 16:00N 34°42' E 135°17'0 0.0
2017-Nov-09 15:30N 34°42' E 135°17'0 0.0
2017-Nov-09 15:00N 34°42' E 135°17'0 0.1
2017-Nov-09 14:30N 34°42' E 135°17'5 9.1
2017-Nov-09 14:00N 34°37' E 135°18'918.3
2017-Nov-09 13:30N 34°35' E 135°08'917.4
2017-Nov-09 13:00N 34°37' E 134°58'1119.0
2017-Nov-09 12:27N 34°32' E 134°46'3 0.2
2017-Nov-08 17:48N 34°34' E 134°49'618.8
2017-Nov-08 17:30N 34°36' E 134°55'917.5
2017-Nov-08 17:00N 34°36' E 135°05'1019.4
2017-Nov-08 16:31N 34°38' E 135°17'4 7.6
2017-Nov-08 16:00N 34°42' E 135°17'0 0.0
2017-Nov-08 15:30N 34°42' E 135°17'0 0.0
2017-Nov-08 15:00N 34°42' E 135°17'0 0.0
2017-Nov-08 14:30N 34°42' E 135°17'2 4.3
2017-Nov-08 14:00N 34°40' E 135°19'816.7
2017-Nov-08 13:30N 34°35' E 135°11'1019.1
2017-Nov-08 13:00N 34°37' E 134°59'9 0.5
2017-Nov-07 18:00N 34°34' E 134°49'  
Track history (hours):
 
Tides and Currents Weather Stations Pressure Air Temp Water Temp Dewpoint Dewpoint Depression Visibility Wind Speed Wind Dir Waves Ship Positions

Orange Hope

Last reported at 2017-Nov-17 17:48 UTC. Time now 2017-Nov-21 11:37 UTC.
Position N 34°34' E 134°50'.

Length 180 m; draft 6.5 m.

Type: Passenger vessel. MMSI: 431501801.

Date/timePositionNaut miles runAvg speedWind from/ knotsBaromVisibWave heightAir tempDewpointWater temp
2017-Nov-17 17:48N 34°34' E 134°50'517.7
2017-Nov-17 17:30N 34°37' E 134°55'816.8
2017-Nov-17 17:00N 34°36' E 135°06'1019.7
2017-Nov-17 16:30N 34°38' E 135°17'4 7.3
2017-Nov-17 16:00N 34°42' E 135°17'0 0.0
2017-Nov-17 15:30N 34°42' E 135°17'0 0.0
2017-Nov-17 15:00N 34°42' E 135°17'0 0.6
2017-Nov-17 14:30N 34°42' E 135°18'612.9
2017-Nov-17 14:00N 34°36' E 135°15'1019.5
2017-Nov-17 13:30N 34°36' E 135°03'1018.8
2017-Nov-17 13:00N 34°34' E 134°52'9 0.5
2017-Nov-16 18:07N 34°32' E 134°42'420.9
2017-Nov-16 17:56N 34°33' E 134°46'920.3
2017-Nov-16 17:30N 34°37' E 134°56'917.3
2017-Nov-16 17:00N 34°35' E 135°06'1019.9
2017-Nov-16 16:30N 34°38' E 135°18'4 7.0
2017-Nov-16 16:00N 34°42' E 135°17'0 0.0
2017-Nov-16 15:30N 34°42' E 135°17'0 0.0
2017-Nov-16 15:00N 34°42' E 135°17'0 0.0
2017-Nov-16 14:30N 34°42' E 135°17'3 5.7
2017-Nov-16 14:00N 34°39' E 135°19'918.0
2017-Nov-16 13:30N 34°35' E 135°09'1020.7
2017-Nov-16 13:00N 34°36' E 134°57'5 0.3
2017-Nov-15 17:47N 34°35' E 134°51'618.8
2017-Nov-15 17:30N 34°37' E 134°57'817.2
2017-Nov-15 17:01N 34°35' E 135°07'919.0
2017-Nov-15 16:31N 34°39' E 135°18'3 5.8
2017-Nov-15 16:00N 34°42' E 135°17'0 0.0
2017-Nov-15 15:30N 34°42' E 135°17'0 0.0
2017-Nov-15 15:00N 34°42' E 135°17'0 0.1
2017-Nov-15 14:30N 34°42' E 135°17'4 7.5
2017-Nov-15 14:00N 34°38' E 135°18'917.3
2017-Nov-15 13:30N 34°35' E 135°09'1019.3
2017-Nov-15 13:01N 34°36' E 134°57'11 0.6
2017-Nov-14 18:11N 34°33' E 134°45'320.1
2017-Nov-14 18:00N 34°34' E 134°48'1019.5
2017-Nov-14 17:30N 34°38' E 134°60'918.4
2017-Nov-14 17:00N 34°36' E 135°11'816.1
2017-Nov-14 16:30N 34°41' E 135°18'1 2.4
2017-Nov-14 16:00N 34°42' E 135°17'0 0.0
2017-Nov-14 15:30N 34°42' E 135°17'0 0.0
2017-Nov-14 14:58N 34°42' E 135°17'0 0.1
2017-Nov-14 14:30N 34°42' E 135°17'5 9.3
2017-Nov-14 14:00N 34°37' E 135°18'918.4
2017-Nov-14 13:30N 34°34' E 135°08'918.7
2017-Nov-14 13:00N 34°36' E 134°57'  
2017-Nov-10 18:07N 34°31' E 134°41'620.3
2017-Nov-10 17:50N 34°34' E 134°47'720.7
2017-Nov-10 17:30N 34°36' E 134°55'919.0
2017-Nov-10 17:00N 34°36' E 135°06'918.7
2017-Nov-10 16:30N 34°38' E 135°18'4 7.4
2017-Nov-10 16:00N 34°42' E 135°17'0 0.0
2017-Nov-10 15:30N 34°42' E 135°17'0 0.0
2017-Nov-10 15:00N 34°42' E 135°17'0 0.7
2017-Nov-10 14:30N 34°42' E 135°18'612.3
2017-Nov-10 14:00N 34°36' E 135°15'918.2
2017-Nov-10 13:30N 34°35' E 135°04'816.0
2017-Nov-10 13:00N 34°35' E 134°55'8 0.4
2017-Nov-09 17:55N 34°33' E 134°45'921.8
2017-Nov-09 17:30N 34°37' E 134°55'917.7
2017-Nov-09 17:00N 34°35' E 135°05'1019.7
2017-Nov-09 16:30N 34°38' E 135°17'4 7.5
2017-Nov-09 16:00N 34°42' E 135°17'0 0.0
2017-Nov-09 15:30N 34°42' E 135°17'0 0.0
2017-Nov-09 15:00N 34°42' E 135°17'0 0.1
2017-Nov-09 14:30N 34°42' E 135°17'5 9.1
2017-Nov-09 14:00N 34°37' E 135°18'918.3
2017-Nov-09 13:30N 34°35' E 135°08'917.4
2017-Nov-09 13:00N 34°37' E 134°58'1119.0
2017-Nov-09 12:27N 34°32' E 134°46'3 0.2
2017-Nov-08 17:48N 34°34' E 134°49'618.8
2017-Nov-08 17:30N 34°36' E 134°55'917.5
2017-Nov-08 17:00N 34°36' E 135°05'1019.4
2017-Nov-08 16:31N 34°38' E 135°17'4 7.6
2017-Nov-08 16:00N 34°42' E 135°17'0 0.0
2017-Nov-08 15:30N 34°42' E 135°17'0 0.0
2017-Nov-08 15:00N 34°42' E 135°17'0 0.0
2017-Nov-08 14:30N 34°42' E 135°17'2 4.3
2017-Nov-08 14:00N 34°40' E 135°19'816.7
2017-Nov-08 13:30N 34°35' E 135°11'1019.1
2017-Nov-08 13:00N 34°37' E 134°59'9 0.5
2017-Nov-07 18:00N 34°34' E 134°49'  

Dump ship's entire track history